Time;durP1;ratioP1;P1;durP2;ratioP2;P2;SDS_P1;SDS_P2;PMS_P1;PMS_P2;Temp;Humidity;BMP_temperature;BMP_pressure;BME280_temperature;BME280_humidity;BME280_pressure;Samples;Min_cycle;Max_cycle;Signal;HPM_P1;HPM_P2
2022/07/06 00:02:25;;;;;;;3.72;0.73;;;15.60;99.90;;;;;;5070351;28;20040;-80
2022/07/06 00:04:50;;;;;;;6.78;0.55;;;14.40;99.90;;;;;;5086450;28;20046;-80
2022/07/06 00:07:16;;;;;;;1.77;0.60;;;14.40;99.90;;;;;;5088691;28;20043;-80
2022/07/06 00:09:42;;;;;;;4.80;0.50;;;14.60;99.90;;;;;;5069913;28;20035;-80
2022/07/06 00:12:08;;;;;;;4.55;0.60;;;15.30;99.90;;;;;;5070857;28;20399;-79
2022/07/06 00:14:34;;;;;;;3.60;0.68;;;14.30;99.90;;;;;;5067862;28;20047;-79
2022/07/06 00:16:59;;;;;;;5.95;0.60;;;14.30;99.90;;;;;;5087891;28;20497;-80
2022/07/06 00:19:25;;;;;;;1.60;0.65;;;14.50;99.90;;;;;;5083651;28;20079;-80
2022/07/06 00:21:50;;;;;;;4.35;0.73;;;14.30;99.90;;;;;;5081834;28;20032;-80
2022/07/06 00:24:17;;;;;;;4.20;0.55;;;14.20;99.90;;;;;;5062779;28;20486;-79
2022/07/06 00:26:44;;;;;;;3.70;0.75;;;14.10;99.90;;;;;;5088652;28;20044;-79
2022/07/06 00:29:10;;;;;;;2.75;0.52;;;14.10;99.90;;;;;;5064313;28;20057;-80
2022/07/06 00:31:35;;;;;;;5.25;1.23;;;14.10;99.90;;;;;;5071139;28;20062;-79
2022/07/06 00:34:01;;;;;;;6.40;0.90;;;14.10;99.90;;;;;;5088506;28;20028;-82
2022/07/06 00:36:27;;;;;;;2.10;0.65;;;14.10;99.90;;;;;;5066308;28;20109;-79
2022/07/06 00:38:53;;;;;;;6.38;0.75;;;14.10;99.90;;;;;;5087313;28;20044;-81
2022/07/06 00:41:18;;;;;;;6.63;0.90;;;14.10;99.90;;;;;;5083908;28;20036;-83
2022/07/06 00:43:49;;;;;;;5.22;1.00;;;14.10;99.90;;;;;;5085743;28;20097;-80
2022/07/06 00:46:14;;;;;;;6.28;0.70;;;14.00;99.90;;;;;;5083111;28;20496;-80
2022/07/06 00:48:40;;;;;;;1.33;0.60;;;14.00;99.90;;;;;;5068244;28;20044;-80
2022/07/06 00:51:08;;;;;;;4.70;0.75;;;14.00;99.90;;;;;;5089190;28;20332;-81
2022/07/06 00:53:34;;;;;;;2.80;0.63;;;14.80;99.90;;;;;;5085020;28;20051;-79
2022/07/06 00:56:01;;;;;;;4.50;0.90;;;14.00;99.90;;;;;;5087220;28;20040;-79
2022/07/06 00:58:26;;;;;;;2.15;0.73;;;14.00;99.90;;;;;;5063897;28;20072;-79
2022/07/06 01:00:52;;;;;;;3.72;0.75;;;14.00;99.90;;;;;;5086619;28;20067;-80
2022/07/06 01:03:18;;;;;;;3.95;0.85;;;14.40;99.90;;;;;;5083522;28;20071;-79
2022/07/06 01:05:44;;;;;;;3.33;1.08;;;14.10;99.90;;;;;;5088017;28;20051;-81
2022/07/06 01:08:09;;;;;;;2.63;0.75;;;14.10;99.90;;;;;;5070152;28;20535;-81
2022/07/06 01:10:35;;;;;;;2.00;0.70;;;15.10;99.90;;;;;;5088986;28;20119;-80
2022/07/06 01:13:01;;;;;;;8.50;0.70;;;14.00;99.90;;;;;;5064354;28;20059;-80
2022/07/06 01:15:27;;;;;;;6.82;0.90;;;14.00;99.90;;;;;;5085524;28;20507;-79
2022/07/06 01:17:53;;;;;;;3.38;0.73;;;14.00;99.90;;;;;;5088545;28;20522;-79
2022/07/06 01:20:20;;;;;;;2.33;0.70;;;14.00;99.90;;;;;;5067462;28;20052;-80
2022/07/06 01:22:50;;;;;;;3.80;0.82;;;14.00;99.90;;;;;;5088418;28;20111;-80
2022/07/06 01:25:16;;;;;;;3.38;0.77;;;14.90;99.90;;;;;;5065352;28;20087;-79
2022/07/06 01:27:43;;;;;;;4.10;0.70;;;14.00;99.90;;;;;;5082791;28;20088;-81
2022/07/06 01:30:11;;;;;;;7.20;0.93;;;15.10;99.90;;;;;;5049195;28;20050;-81
2022/07/06 01:32:38;;;;;;;3.47;0.60;;;14.00;99.90;;;;;;5084919;28;20354;-79
2022/07/06 01:35:06;;;;;;;4.35;0.90;;;14.40;99.90;;;;;;5070216;28;20058;-80
2022/07/06 01:37:31;;;;;;;6.03;0.90;;;14.00;99.90;;;;;;5066293;28;20088;-80
2022/07/06 01:40:01;;;;;;;6.32;0.70;;;14.00;99.90;;;;;;5087701;28;20079;-79
2022/07/06 01:42:27;;;;;;;3.13;0.90;;;14.40;99.90;;;;;;5086252;28;20406;-80
2022/07/06 01:44:53;;;;;;;4.30;0.75;;;13.90;99.90;;;;;;5082841;28;20076;-80
2022/07/06 01:47:19;;;;;;;4.40;0.93;;;13.90;99.90;;;;;;5084473;28;20071;-80
2022/07/06 01:49:45;;;;;;;7.00;1.83;;;13.80;99.90;;;;;;5067427;28;20066;-83
2022/07/06 01:52:11;;;;;;;6.18;0.90;;;13.90;99.90;;;;;;5073679;28;20143;-82
2022/07/06 01:54:36;;;;;;;2.47;1.10;;;14.50;99.90;;;;;;5052733;28;20135;-80
2022/07/06 01:57:02;;;;;;;2.05;0.82;;;15.20;99.90;;;;;;5086078;28;20486;-81
2022/07/06 01:59:28;;;;;;;1.38;0.55;;;13.90;99.90;;;;;;5087586;28;20044;-80
2022/07/06 02:01:53;;;;;;;4.88;1.05;;;13.90;99.90;;;;;;5091761;28;20463;-81
2022/07/06 02:04:19;;;;;;;2.60;0.93;;;14.00;99.90;;;;;;5088306;28;20036;-83
2022/07/06 02:06:45;;;;;;;3.90;0.95;;;14.00;99.90;;;;;;5074529;28;20071;-80
2022/07/06 02:09:10;;;;;;;3.22;0.80;;;14.00;99.90;;;;;;5086688;28;20502;-80
2022/07/06 02:11:36;;;;;;;7.90;0.90;;;15.10;99.90;;;;;;5091286;28;20075;-80
2022/07/06 02:14:01;;;;;;;2.75;0.88;;;14.00;99.90;;;;;;5087401;28;20364;-80
2022/07/06 02:16:27;;;;;;;2.13;0.60;;;13.90;99.90;;;;;;5073020;28;20055;-83
2022/07/06 02:18:52;;;;;;;1.67;0.50;;;14.00;99.90;;;;;;5084700;28;20106;-83
2022/07/06 02:21:18;;;;;;;3.13;1.15;;;13.90;99.90;;;;;;5091879;28;20048;-82
2022/07/06 02:23:44;;;;;;;3.10;0.93;;;13.90;99.90;;;;;;5071075;28;20052;-82
2022/07/06 02:26:09;;;;;;;1.27;0.77;;;13.90;99.90;;;;;;5072753;28;20036;-79
2022/07/06 02:28:35;;;;;;;3.88;0.70;;;13.90;99.90;;;;;;5090077;28;20056;-79
2022/07/06 02:31:01;;;;;;;5.22;1.20;;;14.60;99.90;;;;;;5072645;28;20036;-84
2022/07/06 02:33:26;;;;;;;2.53;0.65;;;13.90;99.90;;;;;;5091256;28;20036;-81
2022/07/06 02:35:52;;;;;;;4.10;0.80;;;13.90;99.90;;;;;;5084239;28;20059;-83
2022/07/06 02:38:18;;;;;;;3.65;0.70;;;13.90;99.90;;;;;;5059898;28;20051;-83
2022/07/06 02:40:43;;;;;;;4.95;0.90;;;13.90;99.90;;;;;;5076851;28;20040;-80
2022/07/06 02:43:09;;;;;;;3.17;0.57;;;13.90;99.90;;;;;;5075030;28;20040;-83
2022/07/06 02:45:35;;;;;;;2.95;0.70;;;14.70;99.90;;;;;;5094712;28;20046;-81
2022/07/06 02:48:00;;;;;;;3.70;0.80;;;14.00;99.90;;;;;;5096261;28;20104;-82
2022/07/06 02:50:26;;;;;;;3.17;0.80;;;14.00;99.90;;;;;;5070947;28;20119;-83
2022/07/06 02:52:52;;;;;;;3.60;0.80;;;14.40;99.90;;;;;;5072438;28;20024;-80
2022/07/06 02:55:18;;;;;;;3.83;0.82;;;13.90;99.90;;;;;;5087662;28;20108;-80
2022/07/06 02:57:43;;;;;;;4.22;0.90;;;14.60;99.90;;;;;;5087073;28;20047;-79
2022/07/06 03:00:10;;;;;;;1.95;0.80;;;13.90;99.90;;;;;;5091140;28;20079;-79
2022/07/06 03:02:36;;;;;;;5.50;1.05;;;13.90;99.90;;;;;;5091197;28;20157;-79
2022/07/06 03:05:02;;;;;;;4.22;0.90;;;13.90;99.90;;;;;;5087028;28;20479;-80
2022/07/06 03:07:27;;;;;;;3.65;0.95;;;13.80;99.90;;;;;;5090940;28;20550;-79
2022/07/06 03:09:53;;;;;;;2.97;0.68;;;14.90;99.90;;;;;;5090026;28;20130;-79
2022/07/06 03:12:19;;;;;;;4.28;1.30;;;13.90;99.90;;;;;;5068420;28;20111;-79
2022/07/06 03:14:44;;;;;;;5.00;1.60;;;13.70;99.90;;;;;;5088936;28;20044;-81
2022/07/06 03:17:10;;;;;;;5.30;1.20;;;14.20;99.90;;;;;;5067945;28;20376;-79
2022/07/06 03:19:36;;;;;;;3.38;1.13;;;13.70;99.90;;;;;;5088039;28;20085;-78
2022/07/06 03:22:02;;;;;;;2.03;0.63;;;13.70;99.90;;;;;;5068462;28;20044;-81
2022/07/06 03:24:27;;;;;;;3.75;1.05;;;13.70;99.90;;;;;;5055222;28;20051;-80
2022/07/06 03:26:53;;;;;;;5.93;0.70;;;13.70;99.90;;;;;;5071271;28;20490;-79
2022/07/06 03:29:20;;;;;;;2.28;0.77;;;13.60;99.90;;;;;;5068189;28;20044;-78
2022/07/06 03:31:46;;;;;;;3.15;0.50;;;14.50;99.90;;;;;;5081620;28;20071;-78
2022/07/06 03:34:11;;;;;;;5.97;0.75;;;14.60;99.90;;;;;;5050723;28;20703;-78
2022/07/06 03:36:37;;;;;;;2.90;0.63;;;13.50;99.90;;;;;;5103686;28;20457;-78
2022/07/06 03:39:03;;;;;;;1.65;0.43;;;13.40;99.90;;;;;;5085178;28;20123;-79
2022/07/06 03:41:28;;;;;;;3.85;0.77;;;13.40;99.90;;;;;;5069246;28;20075;-78
2022/07/06 03:43:54;;;;;;;3.47;0.88;;;13.40;99.90;;;;;;5090044;28;20036;-79
2022/07/06 03:46:20;;;;;;;2.72;0.75;;;13.40;99.90;;;;;;5081159;28;20547;-80
2022/07/06 03:48:47;;;;;;;5.38;0.75;;;13.20;99.90;;;;;;5070412;28;20036;-78
2022/07/06 03:51:13;;;;;;;5.50;0.57;;;14.60;99.90;;;;;;5085722;28;20102;-79
2022/07/06 03:53:39;;;;;;;6.03;0.60;;;13.30;99.90;;;;;;5086650;28;20040;-79
2022/07/06 03:58:49;;;;;;;;;;;13.30;99.90;;;;;;5088547;28;20036;-80
2022/07/06 04:01:14;;;;;;;6.93;1.10;;;13.80;99.90;;;;;;5072011;28;19920;-83
2022/07/06 04:03:40;;;;;;;5.18;0.63;;;14.00;99.90;;;;;;5090634;28;20067;-79
2022/07/06 04:06:06;;;;;;;4.15;0.70;;;13.10;99.90;;;;;;5088703;28;20036;-79
2022/07/06 04:08:32;;;;;;;9.77;0.93;;;13.10;99.90;;;;;;5071446;28;20056;-79
2022/07/06 04:10:57;;;;;;;6.57;0.75;;;14.10;99.90;;;;;;5088920;28;20036;-79
2022/07/06 04:13:25;;;;;;;2.85;0.70;;;13.10;99.90;;;;;;5081123;28;20506;-79
2022/07/06 04:15:51;;;;;;;3.90;0.60;;;13.10;99.90;;;;;;5067281;28;20043;-79
2022/07/06 04:18:16;;;;;;;3.60;0.75;;;13.10;99.90;;;;;;5090530;28;20071;-80
2022/07/06 04:20:42;;;;;;;5.03;0.35;;;13.30;99.90;;;;;;5071949;28;20079;-80
2022/07/06 04:23:08;;;;;;;3.97;0.98;;;13.10;99.90;;;;;;5085323;28;20133;-78
2022/07/06 04:25:34;;;;;;;4.18;0.47;;;13.00;99.90;;;;;;5089646;28;20056;-81
2022/07/06 04:28:00;;;;;;;4.43;0.52;;;13.40;99.90;;;;;;5080780;28;20051;-80
2022/07/06 04:30:25;;;;;;;3.45;0.60;;;13.10;99.90;;;;;;5090227;28;20047;-80
2022/07/06 04:32:51;;;;;;;2.33;0.50;;;13.10;99.90;;;;;;5081100;28;20036;-80
2022/07/06 04:35:17;;;;;;;23.17;11.65;;;13.10;99.90;;;;;;5088423;28;20082;-79
2022/07/06 04:37:42;;;;;;;8.65;2.42;;;13.10;99.90;;;;;;5070948;28;20035;-78
2022/07/06 04:40:09;;;;;;;3.35;2.28;;;14.00;99.90;;;;;;5087742;28;20360;-80
2022/07/06 04:42:34;;;;;;;4.90;0.90;;;13.20;99.90;;;;;;5106695;28;20128;-79
2022/07/06 04:45:00;;;;;;;4.93;0.55;;;13.30;99.90;;;;;;5071348;28;20123;-79
2022/07/06 04:47:26;;;;;;;2.85;0.63;;;13.40;99.90;;;;;;5049393;28;20067;-82
2022/07/06 04:49:51;;;;;;;4.65;0.40;;;13.40;99.90;;;;;;5085611;28;20036;-80
2022/07/06 04:52:17;;;;;;;4.38;0.52;;;14.50;99.90;;;;;;5072188;28;20040;-79
2022/07/06 04:54:46;;;;;;;5.53;0.55;;;13.60;99.90;;;;;;5091280;28;20039;-77
2022/07/06 04:57:11;;;;;;;12.25;8.80;;;13.50;99.90;;;;;;5091579;28;20036;-78
2022/07/06 04:59:37;;;;;;;12.00;5.70;;;13.50;99.90;;;;;;5070472;28;20055;-78
2022/07/06 05:02:03;;;;;;;3.78;0.68;;;13.50;99.90;;;;;;5071558;28;20039;-80
2022/07/06 05:04:28;;;;;;;5.90;0.80;;;13.50;99.90;;;;;;5085035;28;20066;-83
2022/07/06 05:06:54;;;;;;;4.25;0.77;;;13.50;99.90;;;;;;5087656;28;20039;-81
2022/07/06 05:09:19;;;;;;;4.60;0.47;;;13.50;99.90;;;;;;5070568;28;20040;-82
2022/07/06 05:11:45;;;;;;;4.75;0.75;;;13.50;99.90;;;;;;5081567;28;20089;-81
2022/07/06 05:14:10;;;;;;;6.00;0.55;;;13.60;99.90;;;;;;5070587;28;20394;-80
2022/07/06 05:16:36;;;;;;;4.97;1.00;;;14.10;99.90;;;;;;5070329;28;20032;-80
2022/07/06 05:19:02;;;;;;;6.22;0.68;;;14.00;99.90;;;;;;5065745;28;20032;-81
2022/07/06 05:21:28;;;;;;;3.88;0.50;;;14.00;99.90;;;;;;5088718;28;20131;-79
2022/07/06 05:23:53;;;;;;;4.28;0.68;;;13.50;99.90;;;;;;5082004;28;20051;-80
2022/07/06 05:26:19;;;;;;;3.17;0.60;;;13.50;99.90;;;;;;5089903;28;20058;-78
2022/07/06 05:28:44;;;;;;;6.72;0.98;;;13.40;99.90;;;;;;5068280;28;20075;-80
2022/07/06 05:31:10;;;;;;;2.22;0.40;;;13.50;99.90;;;;;;5081676;28;20047;-78
2022/07/06 05:33:35;;;;;;;6.80;0.57;;;13.50;99.90;;;;;;5092397;28;20044;-80
2022/07/06 05:36:01;;;;;;;4.65;0.60;;;13.40;99.90;;;;;;5088232;28;20045;-78
2022/07/06 05:38:29;;;;;;;3.60;0.45;;;13.50;99.90;;;;;;5084951;28;20251;-82
2022/07/06 05:40:55;;;;;;;11.95;7.32;;;13.50;99.90;;;;;;5085912;28;20151;-78
2022/07/06 05:43:21;;;;;;;1.20;0.50;;;13.50;99.90;;;;;;5074248;28;20459;-80
2022/07/06 05:45:46;;;;;;;2.08;0.35;;;13.50;99.90;;;;;;5085227;28;20040;-77
2022/07/06 05:50:56;;;;;;;2.50;0.70;;;13.60;99.90;;;;;;5083792;28;20490;-78
2022/07/06 05:53:22;;;;;;;4.72;1.10;;;13.60;99.90;;;;;;5089890;28;20043;-79
2022/07/06 05:55:48;;;;;;;2.05;0.75;;;13.60;99.90;;;;;;5092187;28;20480;-78
2022/07/06 05:58:13;;;;;;;2.05;0.20;;;13.70;99.90;;;;;;5092623;28;20055;-78
2022/07/06 06:00:39;;;;;;;5.95;0.35;;;13.70;99.90;;;;;;5084286;28;20117;-78
2022/07/06 06:03:05;;;;;;;1.63;0.25;;;13.70;99.90;;;;;;5090310;28;20036;-79
2022/07/06 06:05:31;;;;;;;2.05;0.40;;;13.80;99.90;;;;;;5074957;28;20039;-80
2022/07/06 06:07:58;;;;;;;5.93;0.52;;;13.90;99.90;;;;;;5092328;28;20061;-77
2022/07/06 06:10:23;;;;;;;1.35;0.30;;;13.80;99.90;;;;;;5096375;28;20040;-82
2022/07/06 06:12:52;;;;;;;4.43;0.40;;;13.80;99.90;;;;;;5092805;28;20043;-80
2022/07/06 06:15:18;;;;;;;4.20;1.15;;;13.90;99.90;;;;;;5068596;28;20048;-83
2022/07/06 06:17:44;;;;;;;3.65;0.43;;;13.90;99.90;;;;;;5069432;28;20051;-81
2022/07/06 06:20:13;;;;;;;5.10;0.55;;;14.00;99.90;;;;;;5090971;28;20040;-82
2022/07/06 06:22:56;;;;;;;6.13;0.55;;;14.00;99.90;;;;;;5087159;28;20104;-84
2022/07/06 06:25:33;;;;;;;6.70;0.52;;;14.10;99.90;;;;;;5084792;28;20386;-83
2022/07/06 06:27:59;;;;;;;2.63;0.35;;;14.10;99.90;;;;;;5070774;28;20513;-83
2022/07/06 06:30:25;;;;;;;2.65;0.60;;;14.10;99.90;;;;;;5090207;28;20036;-82
2022/07/06 06:32:51;;;;;;;1.83;0.25;;;14.80;99.90;;;;;;5048246;28;20143;-82
2022/07/06 06:35:17;;;;;;;4.00;0.50;;;15.40;99.90;;;;;;5089937;28;20550;-78
2022/07/06 06:37:42;;;;;;;10.02;1.00;;;14.20;99.90;;;;;;5094289;28;20426;-80
2022/07/06 06:40:08;;;;;;;11.85;0.73;;;14.20;99.90;;;;;;5089616;28;20510;-83
2022/07/06 06:42:45;;;;;;;5.28;0.38;;;14.20;99.90;;;;;;5090001;28;20066;-83
2022/07/06 06:45:16;;;;;;;3.00;0.75;;;14.30;99.90;;;;;;5074912;28;20048;-78
2022/07/06 06:47:42;;;;;;;4.45;0.28;;;14.30;99.90;;;;;;5073025;28;20040;-80
2022/07/06 06:50:08;;;;;;;3.50;0.77;;;14.80;99.90;;;;;;5082741;28;20036;-82
2022/07/06 06:52:33;;;;;;;4.15;0.57;;;14.40;99.90;;;;;;5089156;28;20035;-79
2022/07/06 06:54:59;;;;;;;6.25;0.60;;;15.10;99.90;;;;;;5090334;28;20164;-80
2022/07/06 06:57:25;;;;;;;9.43;0.70;;;14.50;99.90;;;;;;5069850;28;20036;-83
2022/07/06 06:59:51;;;;;;;5.63;0.55;;;14.60;99.90;;;;;;5090300;28;20531;-82
2022/07/06 07:02:16;;;;;;;6.43;1.00;;;14.60;99.90;;;;;;5090224;28;20048;-79
2022/07/06 07:04:42;;;;;;;2.72;0.30;;;14.70;99.90;;;;;;5083644;28;20124;-77
2022/07/06 07:07:07;;;;;;;4.47;0.50;;;14.70;99.90;;;;;;5088114;28;20061;-79
2022/07/06 07:09:33;;;;;;;4.63;0.55;;;14.80;99.90;;;;;;5089217;28;20044;-76
2022/07/06 07:11:59;;;;;;;1.38;0.22;;;15.10;99.90;;;;;;5087348;28;20039;-76
2022/07/06 07:14:24;;;;;;;6.15;0.90;;;15.80;99.90;;;;;;5089977;28;20495;-76
2022/07/06 07:16:50;;;;;;;3.53;0.38;;;14.90;99.90;;;;;;5083578;28;20303;-79
2022/07/06 07:19:15;;;;;;;8.35;0.60;;;14.90;99.90;;;;;;5071752;28;20044;-79
2022/07/06 07:21:43;;;;;;;2.45;0.45;;;15.10;99.90;;;;;;5090619;28;20048;-76
2022/07/06 07:24:09;;;;;;;5.45;0.43;;;15.10;99.90;;;;;;5087187;28;20089;-80
2022/07/06 07:26:35;;;;;;;5.28;2.50;;;15.20;99.90;;;;;;5089477;28;20097;-79
2022/07/06 07:29:01;;;;;;;11.52;3.35;;;15.30;99.90;;;;;;5078677;28;20274;-78
2022/07/06 07:31:26;;;;;;;4.32;0.43;;;15.30;99.90;;;;;;5084353;28;20127;-78
2022/07/06 07:33:53;;;;;;;6.10;0.40;;;15.30;99.90;;;;;;5080261;28;20542;-80
2022/07/06 07:36:19;;;;;;;2.85;0.30;;;15.30;99.90;;;;;;5081272;28;20032;-79
2022/07/06 07:38:44;;;;;;;7.63;0.40;;;15.40;99.90;;;;;;5082704;28;20040;-78
2022/07/06 07:41:13;;;;;;;3.22;0.35;;;15.50;99.90;;;;;;5086953;28;20074;-79
2022/07/06 07:43:39;;;;;;;3.63;0.63;;;16.50;99.90;;;;;;5089057;28;20075;-79
2022/07/06 07:46:04;;;;;;;3.65;0.52;;;15.60;99.90;;;;;;5089008;28;20063;-79
2022/07/06 07:48:30;;;;;;;4.68;0.65;;;15.60;99.90;;;;;;5089475;28;20039;-79
2022/07/06 07:51:02;;;;;;;3.35;0.28;;;15.60;99.90;;;;;;5088976;28;20530;-78
2022/07/06 07:53:27;;;;;;;1.95;0.10;;;15.50;99.90;;;;;;5089619;28;20086;-77
2022/07/06 07:55:53;;;;;;;4.00;0.85;;;15.60;99.90;;;;;;5088407;28;20048;-77
2022/07/06 07:58:19;;;;;;;4.43;0.47;;;15.60;99.90;;;;;;5085932;28;20039;-79
2022/07/06 08:00:45;;;;;;;4.53;0.40;;;15.70;99.90;;;;;;5073941;28;20445;-77
2022/07/06 08:03:12;;;;;;;2.38;0.30;;;15.70;99.90;;;;;;5066032;28;20453;-79
2022/07/06 08:05:38;;;;;;;1.55;0.20;;;15.90;99.90;;;;;;5085180;28;20040;-79
2022/07/06 08:08:04;;;;;;;2.17;0.32;;;15.80;99.90;;;;;;5055958;28;20398;-79
2022/07/06 08:10:30;;;;;;;2.05;0.30;;;15.90;99.90;;;;;;5089064;28;20048;-79
2022/07/06 08:12:55;;;;;;;2.42;0.40;;;15.90;99.90;;;;;;5087785;28;20621;-80
2022/07/06 08:15:21;;;;;;;2.25;0.40;;;16.00;99.90;;;;;;5086606;28;20120;-79
2022/07/06 08:17:47;;;;;;;2.75;0.60;;;16.00;99.90;;;;;;5075604;28;20085;-79
2022/07/06 08:20:13;;;;;;;4.95;0.52;;;16.50;99.90;;;;;;5075918;28;20044;-79
2022/07/06 08:22:39;;;;;;;2.42;0.15;;;16.20;99.90;;;;;;5088839;28;20470;-79
2022/07/06 08:25:05;;;;;;;4.90;0.77;;;16.20;99.90;;;;;;5086978;28;20055;-79
2022/07/06 08:27:31;;;;;;;4.38;1.38;;;16.20;99.90;;;;;;5088705;28;20059;-79
2022/07/06 08:29:56;;;;;;;2.95;0.32;;;16.20;99.90;;;;;;5088392;28;20052;-76
2022/07/06 08:32:22;;;;;;;3.75;0.43;;;16.10;99.90;;;;;;5089674;28;20028;-77
2022/07/06 08:34:48;;;;;;;1.13;0.20;;;16.10;99.90;;;;;;5089445;28;20128;-80
2022/07/06 08:37:13;;;;;;;3.05;0.65;;;16.10;99.90;;;;;;5087760;28;20032;-77
2022/07/06 08:39:39;;;;;;;4.13;0.90;;;16.80;99.90;;;;;;5082626;28;20051;-77
2022/07/06 08:42:07;;;;;;;1.90;0.10;;;16.50;99.90;;;;;;5087395;28;20044;-77
2022/07/06 08:44:35;;;;;;;3.47;0.30;;;16.20;99.90;;;;;;5091802;28;20173;-77
2022/07/06 08:47:05;;;;;;;2.75;0.68;;;16.20;99.90;;;;;;5071290;28;20058;-77
2022/07/06 08:49:33;;;;;;;4.60;0.40;;;16.30;99.90;;;;;;5091075;28;20035;-79
2022/07/06 08:52:00;;;;;;;2.28;0.50;;;16.30;99.90;;;;;;5090299;28;20056;-79
2022/07/06 08:54:26;;;;;;;2.28;0.10;;;16.40;99.90;;;;;;5069867;28;20036;-79
2022/07/06 08:56:52;;;;;;;5.22;0.38;;;16.70;99.90;;;;;;5090286;28;20043;-77
2022/07/06 08:59:17;;;;;;;4.25;0.40;;;16.40;99.90;;;;;;5074961;28;20044;-79
2022/07/06 09:01:46;;;;;;;2.75;0.20;;;16.40;99.90;;;;;;5092274;28;20047;-80
2022/07/06 09:04:12;;;;;;;1.80;0.20;;;16.40;99.90;;;;;;5093886;28;20059;-79
2022/07/06 09:06:42;;;;;;;3.97;0.30;;;16.30;99.90;;;;;;5092040;28;20036;-78
2022/07/06 09:09:09;;;;;;;1.80;0.20;;;16.30;99.90;;;;;;5093603;28;20044;-78
2022/07/06 09:11:35;;;;;;;5.07;0.50;;;16.30;99.90;;;;;;5092271;28;20036;-80
2022/07/06 09:14:01;;;;;;;4.05;0.82;;;16.30;99.90;;;;;;5068220;28;20048;-77
2022/07/06 09:16:29;;;;;;;5.53;0.30;;;17.20;99.90;;;;;;5091202;28;20039;-79
2022/07/06 09:18:55;;;;;;;2.90;0.35;;;16.70;99.90;;;;;;5090850;28;20044;-77
2022/07/06 09:21:31;;;;;;;7.85;0.30;;;16.80;99.90;;;;;;5083839;28;20046;-80
2022/07/06 09:23:59;;;;;;;1.95;0.45;;;16.80;99.90;;;;;;5083960;28;20455;-77
2022/07/06 09:26:26;;;;;;;5.78;0.82;;;16.80;99.90;;;;;;5087943;28;20120;-79
2022/07/06 09:28:51;;;;;;;2.85;0.75;;;16.70;99.90;;;;;;5090573;28;20048;-78
2022/07/06 09:31:17;;;;;;;4.50;0.40;;;16.80;99.90;;;;;;5091754;28;20051;-81
2022/07/06 09:34:07;;;;;;;5.13;0.30;;;16.80;99.90;;;;;;5091747;28;20048;-76
2022/07/06 09:36:48;;;;;;;4.38;0.20;;;16.90;99.90;;;;;;5090335;28;20032;-77
2022/07/06 09:39:28;;;;;;;2.42;0.57;;;17.00;99.90;;;;;;5090706;28;20039;-78
2022/07/06 09:42:03;;;;;;;4.78;0.43;;;17.20;99.90;;;;;;5091030;28;20052;-75
2022/07/06 09:44:29;;;;;;;4.18;0.25;;;17.20;99.90;;;;;;5089397;28;20055;-80
2022/07/06 09:46:59;;;;;;;2.53;0.20;;;17.10;99.90;;;;;;5075074;28;20555;-79
2022/07/06 09:49:25;;;;;;;3.65;0.17;;;17.20;99.90;;;;;;5079411;28;20032;-75
2022/07/06 09:51:54;;;;;;;2.85;0.88;;;17.20;99.90;;;;;;5089587;28;20040;-76
2022/07/06 09:54:19;;;;;;;2.53;0.65;;;17.30;99.90;;;;;;5090901;28;20095;-77
2022/07/06 09:56:52;;;;;;;2.20;0.28;;;17.40;99.90;;;;;;5089050;28;20502;-80
2022/07/06 09:59:23;;;;;;;4.00;0.22;;;17.40;99.90;;;;;;5090337;28;20664;-82
2022/07/06 10:01:57;;;;;;;4.10;0.40;;;17.40;99.90;;;;;;5072649;28;20055;-82
2022/07/06 10:04:24;;;;;;;2.95;0.20;;;17.50;99.90;;;;;;5078279;28;20059;-81
2022/07/06 10:06:53;;;;;;;1.70;0.30;;;17.50;99.90;;;;;;5087463;28;20040;-81
2022/07/06 10:09:21;;;;;;;0.93;0.20;;;17.50;99.90;;;;;;5090575;28;20430;-79
2022/07/06 10:11:53;;;;;;;5.57;0.43;;;17.50;99.90;;;;;;5089934;28;20438;-81
2022/07/06 10:14:25;;;;;;;3.10;0.38;;;17.60;99.90;;;;;;5087001;28;20407;-74
2022/07/06 10:16:51;;;;;;;1.15;0.32;;;17.70;99.90;;;;;;5061599;28;20047;-74
2022/07/06 10:19:19;;;;;;;1.08;0.20;;;18.60;99.90;;;;;;5073183;28;20036;-77
2022/07/06 10:21:45;;;;;;;3.45;0.50;;;17.90;99.90;;;;;;5081073;28;20057;-79
2022/07/06 10:24:14;;;;;;;8.48;0.82;;;18.80;99.90;;;;;;5094430;28;20123;-78
2022/07/06 10:26:41;;;;;;;3.47;0.30;;;18.00;99.90;;;;;;5071117;28;20044;-74
2022/07/06 10:29:07;;;;;;;2.90;0.45;;;17.90;99.90;;;;;;5094412;28;20502;-75
2022/07/06 10:31:36;;;;;;;4.53;0.30;;;17.80;99.90;;;;;;5090764;28;20375;-73
2022/07/06 10:34:05;;;;;;;0.85;0.15;;;18.00;99.90;;;;;;5084319;28;20375;-75
2022/07/06 10:36:36;;;;;;;5.82;2.53;;;18.20;99.90;;;;;;5087949;28;20102;-76
2022/07/06 10:41:02;;;;;;;5.93;1.40;;;18.90;99.90;;;;;;5089290;28;20651;-75
2022/07/06 10:41:47;;;;;;;1.30;0.30;;;17.80;99.90;;;;;;5083056;28;20472;-74
2022/07/06 10:44:18;;;;;;;0.50;0.20;;;18.80;99.90;;;;;;5087253;28;20040;-76
2022/07/06 10:46:58;;;;;;;3.90;0.55;;;18.10;99.90;;;;;;5089376;28;20053;-75
2022/07/06 10:49:26;;;;;;;3.53;0.20;;;18.20;99.90;;;;;;5089820;28;20040;-76
2022/07/06 10:51:52;;;;;;;1.90;0.20;;;18.30;99.90;;;;;;5089795;28;20135;-76
2022/07/06 10:54:19;;;;;;;3.05;0.30;;;18.40;99.90;;;;;;5084036;28;20040;-76
2022/07/06 10:56:46;;;;;;;2.63;0.77;;;18.30;99.90;;;;;;5086972;28;20123;-73
2022/07/06 10:59:31;;;;;;;4.90;0.85;;;18.20;99.90;;;;;;5078946;28;20123;-76
2022/07/06 11:02:17;;;;;;;3.70;0.25;;;18.20;99.90;;;;;;5080535;28;20048;-76
2022/07/06 11:04:47;;;;;;;1.13;0.20;;;18.20;99.90;;;;;;5086866;28;20039;-74
2022/07/06 11:07:17;;;;;;;1.45;0.20;;;18.60;99.90;;;;;;5087188;28;20122;-76
2022/07/06 11:10:09;;;;;;;3.40;0.40;;;18.10;99.90;;;;;;5087701;28;20382;-75
2022/07/06 11:12:35;;;;;;;3.25;0.30;;;18.10;99.90;;;;;;5084386;28;20036;-77
2022/07/06 11:15:02;;;;;;;1.30;0.15;;;18.20;99.90;;;;;;5082616;28;20071;-74
2022/07/06 11:17:28;;;;;;;5.35;0.47;;;18.30;99.90;;;;;;5089981;28;20432;-77
2022/07/06 11:20:08;;;;;;;3.30;0.40;;;18.40;99.90;;;;;;5082085;28;20091;-76
2022/07/06 11:22:36;;;;;;;1.25;0.35;;;18.60;99.90;;;;;;5088667;28;20124;-78
2022/07/06 11:25:03;;;;;;;4.75;0.55;;;18.80;99.90;;;;;;5069727;28;20036;-76
2022/07/06 11:27:29;;;;;;;0.57;0.30;;;18.90;99.90;;;;;;5088965;28;20048;-79
2022/07/06 11:29:55;;;;;;;1.40;0.28;;;19.20;99.90;;;;;;5076798;28;20064;-78
2022/07/06 11:32:27;;;;;;;1.85;0.20;;;19.10;99.90;;;;;;5093590;28;20047;-75
2022/07/06 11:34:53;;;;;;;2.60;0.90;;;19.20;99.90;;;;;;5089969;28;20047;-79
2022/07/06 11:37:20;;;;;;;2.03;0.77;;;19.00;99.90;;;;;;5097818;28;20043;-75
2022/07/06 11:39:47;;;;;;;2.25;0.43;;;19.10;99.90;;;;;;5083814;28;20111;-74
2022/07/06 11:42:15;;;;;;;1.60;0.30;;;19.50;99.90;;;;;;5062744;28;20114;-78
2022/07/06 11:44:41;;;;;;;3.08;0.20;;;19.40;99.90;;;;;;5089788;28;20569;-73
2022/07/06 11:47:09;;;;;;;3.25;0.57;;;20.00;99.90;;;;;;5096713;28;20368;-78
2022/07/06 11:49:37;;;;;;;1.85;0.40;;;19.50;99.90;;;;;;5094781;28;20126;-78
2022/07/06 11:52:07;;;;;;;1.60;0.20;;;19.70;99.90;;;;;;5092619;28;20093;-77
2022/07/06 11:54:32;;;;;;;2.97;0.32;;;19.80;99.90;;;;;;5091175;28;20119;-77
2022/07/06 11:56:59;;;;;;;3.28;0.22;;;19.90;99.90;;;;;;5083121;28;20151;-76
2022/07/06 11:59:29;;;;;;;4.22;0.35;;;19.90;99.90;;;;;;5091256;28;20122;-78
2022/07/06 12:02:06;;;;;;;3.70;0.30;;;19.90;99.90;;;;;;5072754;28;20044;-75
2022/07/06 12:04:33;;;;;;;9.85;0.38;;;19.90;99.90;;;;;;5089088;28;20047;-75
2022/07/06 12:07:11;;;;;;;3.22;0.40;;;19.90;99.90;;;;;;5092053;28;20486;-76
2022/07/06 12:09:38;;;;;;;2.55;0.40;;;19.90;99.90;;;;;;5093365;28;20044;-78
2022/07/06 12:12:05;;;;;;;0.93;0.10;;;19.90;99.90;;;;;;5089266;28;20108;-77
2022/07/06 12:14:32;;;;;;;4.15;0.43;;;19.70;99.90;;;;;;5091669;28;20043;-76
2022/07/06 12:17:07;;;;;;;3.63;0.10;;;19.60;99.90;;;;;;5070591;28;20036;-79
2022/07/06 12:19:34;;;;;;;3.97;0.20;;;19.50;99.90;;;;;;5073481;28;20572;-77
2022/07/06 12:22:01;;;;;;;0.47;0.10;;;19.60;99.90;;;;;;5088958;28;20082;-76
2022/07/06 12:24:30;;;;;;;1.55;0.28;;;19.80;99.90;;;;;;5093435;28;20062;-75
2022/07/06 12:26:56;;;;;;;2.00;0.22;;;19.90;99.90;;;;;;5096920;28;20050;-78
2022/07/06 12:29:23;;;;;;;2.38;0.40;;;19.60;99.90;;;;;;5087773;28;20040;-79
2022/07/06 12:31:52;;;;;;;1.58;0.10;;;19.80;99.90;;;;;;5069619;28;20082;-78
2022/07/06 12:34:21;;;;;;;3.13;0.43;;;19.90;99.90;;;;;;5085759;28;20061;-77
2022/07/06 12:37:05;;;;;;;2.90;0.35;;;20.50;99.90;;;;;;5084276;28;20044;-75
2022/07/06 12:39:31;;;;;;;2.35;0.28;;;20.10;99.90;;;;;;5070120;28;20039;-78
2022/07/06 12:42:05;;;;;;;0.55;0.20;;;20.20;99.60;;;;;;5080694;28;20445;-75
2022/07/06 12:44:31;;;;;;;2.92;0.30;;;20.10;99.80;;;;;;5088014;28;20452;-73
2022/07/06 12:47:09;;;;;;;3.08;0.30;;;20.70;99.90;;;;;;5086207;28;20047;-74
2022/07/06 12:49:36;;;;;;;3.10;0.38;;;20.00;99.80;;;;;;5083208;28;20036;-74
2022/07/06 12:52:07;;;;;;;1.60;0.20;;;19.90;98.70;;;;;;5087879;28;20422;-75
2022/07/06 12:54:50;;;;;;;1.02;0.20;;;19.80;99.10;;;;;;5052059;28;20043;-76